Time;durP1;ratioP1;P1;durP2;ratioP2;P2;SDS_P1;SDS_P2;PMS_P1;PMS_P2;Temp;Humidity;BMP_temperature;BMP_pressure;BME280_temperature;BME280_humidity;BME280_pressure;Samples;Min_cycle;Max_cycle;Signal;HPM_P1;HPM_P2
2022/07/04 00:01:52;;;;;;;5.00;2.60;;;;;;;;;;7310911;19;154477;-14
2022/07/04 00:04:24;;;;;;;11.45;3.10;;;;;;;;;;7310842;19;154457;-13
2022/07/04 00:06:57;;;;;;;5.22;2.38;;;;;;;;;;7310292;19;162668;-13
2022/07/04 00:09:29;;;;;;;5.80;2.40;;;;;;;;;;7310269;19;162894;-13
2022/07/04 00:12:00;;;;;;;5.45;2.85;;;;;;;;;;7309966;19;154393;-13
2022/07/04 00:14:31;;;;;;;7.07;2.85;;;;;;;;;;7310372;19;154376;-13
2022/07/04 00:17:04;;;;;;;5.38;2.08;;;;;;;;;;7309672;19;162867;-13
2022/07/04 00:19:35;;;;;;;5.78;2.65;;;;;;;;;;7308390;19;162930;-13
2022/07/04 00:22:09;;;;;;;4.63;2.40;;;;;;;;;;7310071;19;154785;-13
2022/07/04 00:24:40;;;;;;;6.53;2.67;;;;;;;;;;7309866;19;153561;-14
2022/07/04 00:27:11;;;;;;;8.77;2.33;;;;;;;;;;7309606;19;162727;-13
2022/07/04 00:29:43;;;;;;;6.68;2.65;;;;;;;;;;7307597;19;163260;-14
2022/07/04 00:32:14;;;;;;;5.60;2.50;;;;;;;;;;7310093;19;154824;-13
2022/07/04 00:34:45;;;;;;;5.47;2.13;;;;;;;;;;7308545;19;153939;-13
2022/07/04 00:37:19;;;;;;;6.45;2.58;;;;;;;;;;7309251;19;162245;-14
2022/07/04 00:39:50;;;;;;;4.97;2.17;;;;;;;;;;7311665;19;162795;-19
2022/07/04 00:42:22;;;;;;;7.60;2.40;;;;;;;;;;7316164;19;154891;-13
2022/07/04 00:44:53;;;;;;;5.60;2.47;;;;;;;;;;7317740;19;153983;-13
2022/07/04 00:47:24;;;;;;;4.35;1.95;;;;;;;;;;7315005;19;162276;-13
2022/07/04 00:49:55;;;;;;;4.75;2.35;;;;;;;;;;7315065;19;163355;-13
2022/07/04 00:52:30;;;;;;;5.00;2.40;;;;;;;;;;7316535;19;154708;-13
2022/07/04 00:55:02;;;;;;;8.38;2.97;;;;;;;;;;7315869;19;154332;-13
2022/07/04 00:57:34;;;;;;;4.45;2.10;;;;;;;;;;7312189;19;162673;-13
2022/07/04 01:00:06;;;;;;;4.30;2.20;;;;;;;;;;7310930;19;162397;-13
2022/07/04 01:02:37;;;;;;;4.83;2.03;;;;;;;;;;7315130;19;154562;-13
2022/07/04 01:05:09;;;;;;;4.53;1.80;;;;;;;;;;7315951;19;154002;-14
2022/07/04 01:07:43;;;;;;;3.33;2.00;;;;;;;;;;7315042;19;163117;-13
2022/07/04 01:10:15;;;;;;;4.70;2.22;;;;;;;;;;7314446;19;163349;-13
2022/07/04 01:12:46;;;;;;;5.57;2.33;;;;;;;;;;7314409;19;154298;-14
2022/07/04 01:15:17;;;;;;;4.72;2.45;;;;;;;;;;7315769;19;154019;-13
2022/07/04 01:17:48;;;;;;;8.60;2.22;;;;;;;;;;7310315;19;162704;-14
2022/07/04 01:20:22;;;;;;;5.65;2.72;;;;;;;;;;7309662;19;163334;-13
2022/07/04 01:22:53;;;;;;;5.30;1.58;;;;;;;;;;7314006;19;154497;-13
2022/07/04 01:25:24;;;;;;;7.13;2.05;;;;;;;;;;7314022;19;154281;-13
2022/07/04 01:27:55;;;;;;;5.32;1.77;;;;;;;;;;7315169;19;162890;-13
2022/07/04 01:30:27;;;;;;;7.15;1.73;;;;;;;;;;7316415;19;162904;-14
2022/07/04 01:32:58;;;;;;;4.55;1.67;;;;;;;;;;7313871;19;155355;-13
2022/07/04 01:35:33;;;;;;;6.10;1.85;;;;;;;;;;7315142;19;154549;-14
2022/07/04 01:38:05;;;;;;;4.68;1.23;;;;;;;;;;7312643;19;162468;-14
2022/07/04 01:40:36;;;;;;;3.83;1.67;;;;;;;;;;7313858;19;162802;-13
2022/07/04 01:43:09;;;;;;;4.37;1.70;;;;;;;;;;7313270;19;154462;-13
2022/07/04 01:45:40;;;;;;;4.13;1.60;;;;;;;;;;7314453;19;154081;-13
2022/07/04 01:48:14;;;;;;;5.60;1.80;;;;;;;;;;7312197;19;162394;-13
2022/07/04 01:50:48;;;;;;;5.50;2.03;;;;;;;;;;7314835;19;163207;-13
2022/07/04 01:53:19;;;;;;;5.13;1.85;;;;;;;;;;7313741;19;154941;-13
2022/07/04 01:55:51;;;;;;;3.75;1.63;;;;;;;;;;7314815;19;154057;-14
2022/07/04 01:58:23;;;;;;;3.25;1.60;;;;;;;;;;7313531;19;162554;-13
2022/07/04 02:03:39;;;;;;;6.05;2.00;;;;;;;;;;7314303;19;154587;-14
2022/07/04 02:06:16;;;;;;;3.70;1.90;;;;;;;;;;7313868;19;154036;-14
2022/07/04 02:13:00;;;;;;;4.70;1.65;;;;;;;;;;7314496;19;162776;-14
2022/07/04 02:14:20;;;;;;;2.30;1.35;;;;;;;;;;7313462;19;154911;-14
2022/07/04 02:16:53;;;;;;;2.30;1.40;;;;;;;;;;7314658;19;154041;-14
2022/07/04 02:19:24;;;;;;;;;;;;;;;;;;7314012;19;162836;-14
2022/07/04 02:21:58;;;;;;;5.50;1.33;;;;;;;;;;7312182;19;163644;-15
2022/07/04 02:24:30;;;;;;;6.35;1.42;;;;;;;;;;7314657;19;155032;-14
2022/07/04 02:27:01;;;;;;;5.90;1.48;;;;;;;;;;7313290;19;154519;-14
2022/07/04 02:29:33;;;;;;;4.28;1.60;;;;;;;;;;7312730;19;162244;-14
2022/07/04 02:32:05;;;;;;;3.42;1.50;;;;;;;;;;7313734;19;162504;-15
2022/07/04 02:34:38;;;;;;;3.17;1.70;;;;;;;;;;7312873;19;154816;-14
2022/07/04 02:37:13;;;;;;;3.55;1.33;;;;;;;;;;7313102;19;153997;-15
2022/07/04 02:39:44;;;;;;;3.88;1.33;;;;;;;;;;7309847;19;162931;-15
2022/07/04 02:42:16;;;;;;;3.85;1.38;;;;;;;;;;7312909;19;162850;-14
2022/07/04 02:44:48;;;;;;;3.22;1.60;;;;;;;;;;7313729;19;155085;-15
2022/07/04 02:47:27;;;;;;;4.10;1.40;;;;;;;;;;7313665;19;154040;-18
2022/07/04 02:50:02;;;;;;;4.32;1.65;;;;;;;;;;7313226;19;162199;-15
2022/07/04 02:52:36;;;;;;;3.10;1.33;;;;;;;;;;7312650;19;163315;-15
2022/07/04 02:55:08;;;;;;;3.30;1.85;;;;;;;;;;7312518;19;154786;-15
2022/07/04 02:57:39;;;;;;;2.33;1.60;;;;;;;;;;7312526;19;154012;-15
2022/07/04 03:00:13;;;;;;;3.33;1.50;;;;;;;;;;7310587;19;162263;-15
2022/07/04 03:02:44;;;;;;;2.80;1.85;;;;;;;;;;7310842;19;163443;-14
2022/07/04 03:05:15;;;;;;;2.88;1.13;;;;;;;;;;7312876;19;155012;-15
2022/07/04 03:07:49;;;;;;;2.58;1.50;;;;;;;;;;7312403;19;154125;-15
2022/07/04 03:10:20;;;;;;;2.80;1.40;;;;;;;;;;7312054;19;162650;-15
2022/07/04 03:12:52;;;;;;;2.42;1.30;;;;;;;;;;7312112;19;163352;-14
2022/07/04 03:15:23;;;;;;;4.13;1.50;;;;;;;;;;7312373;19;154794;-14
2022/07/04 03:17:54;;;;;;;4.43;1.38;;;;;;;;;;7312852;19;153980;-15
2022/07/04 03:20:25;;;;;;;3.10;1.27;;;;;;;;;;7309285;19;162635;-15
2022/07/04 03:22:59;;;;;;;1.83;1.20;;;;;;;;;;7312075;19;162925;-14
2022/07/04 03:25:30;;;;;;;2.55;1.10;;;;;;;;;;7311764;19;154526;-15
2022/07/04 03:28:02;;;;;;;2.85;1.20;;;;;;;;;;7312279;19;154744;-15
2022/07/04 03:30:35;;;;;;;4.95;1.50;;;;;;;;;;7310923;19;162874;-12
2022/07/04 03:33:06;;;;;;;;;;;;;;;;;;7310780;19;162584;-12
2022/07/04 03:35:37;;;;;;;3.88;1.45;;;;;;;;;;7310368;19;155183;-12
2022/07/04 03:38:12;;;;;;;1.92;1.23;;;;;;;;;;7311411;19;154380;-12
2022/07/04 03:40:43;;;;;;;3.30;1.30;;;;;;;;;;7309017;19;162190;-14
2022/07/04 03:43:14;;;;;;;3.10;1.40;;;;;;;;;;7311158;19;163201;-14
2022/07/04 03:45:45;;;;;;;2.78;1.23;;;;;;;;;;7309660;19;154962;-15
2022/07/04 03:48:16;;;;;;;1.80;1.20;;;;;;;;;;7310230;19;154518;-14
2022/07/04 03:50:48;;;;;;;1.25;0.95;;;;;;;;;;7310854;19;162224;-15
2022/07/04 03:53:22;;;;;;;1.33;1.10;;;;;;;;;;7310896;19;162764;-15
2022/07/04 03:55:53;;;;;;;3.22;1.30;;;;;;;;;;7311094;19;154468;-14
2022/07/04 03:58:25;;;;;;;3.35;1.42;;;;;;;;;;7309519;19;154081;-15
2022/07/04 04:00:57;;;;;;;1.85;1.02;;;;;;;;;;7307116;19;162825;-14
2022/07/04 04:06:12;;;;;;;2.67;1.00;;;;;;;;;;7311233;19;154453;-15
2022/07/04 04:08:46;;;;;;;2.45;1.25;;;;;;;;;;7310773;19;154313;-15
2022/07/04 04:11:17;;;;;;;6.00;1.63;;;;;;;;;;7310117;19;162211;-14
2022/07/04 04:13:49;;;;;;;2.17;1.23;;;;;;;;;;7310255;19;162963;-15
2022/07/04 04:16:20;;;;;;;2.38;1.23;;;;;;;;;;7318036;19;154523;-14
2022/07/04 04:18:53;;;;;;;2.00;1.20;;;;;;;;;;7317038;19;154628;-14
2022/07/04 04:21:25;;;;;;;3.17;1.15;;;;;;;;;;7315732;19;162273;-14
2022/07/04 04:23:59;;;;;;;2.42;1.27;;;;;;;;;;7317016;19;163188;-14
2022/07/04 04:26:31;;;;;;;2.63;1.20;;;;;;;;;;7317703;19;155012;-15
2022/07/04 04:29:03;;;;;;;1.20;1.10;;;;;;;;;;7317471;19;154003;-15
2022/07/04 04:31:34;;;;;;;2.92;1.20;;;;;;;;;;7316786;19;162803;-15
2022/07/04 04:34:05;;;;;;;3.92;1.30;;;;;;;;;;7316736;19;163034;-14
2022/07/04 04:36:37;;;;;;;2.50;1.00;;;;;;;;;;7316656;19;154506;-14
2022/07/04 04:39:11;;;;;;;2.55;1.33;;;;;;;;;;7315308;19;154575;-12
2022/07/04 04:41:42;;;;;;;1.63;1.42;;;;;;;;;;7313763;19;162850;-14
2022/07/04 04:44:13;;;;;;;1.73;1.00;;;;;;;;;;7316169;19;162781;-14
2022/07/04 04:46:44;;;;;;;1.10;1.05;;;;;;;;;;7316646;19;154843;-14
2022/07/04 04:49:16;;;;;;;2.67;1.15;;;;;;;;;;7316550;19;154331;-14
2022/07/04 04:51:48;;;;;;;2.25;1.63;;;;;;;;;;7316123;19;162240;-14
2022/07/04 04:54:22;;;;;;;1.35;1.13;;;;;;;;;;7316039;19;163333;-15
2022/07/04 04:56:53;;;;;;;1.58;1.02;;;;;;;;;;7316319;19;154840;-14
2022/07/04 04:59:24;;;;;;;2.42;1.10;;;;;;;;;;7315788;19;154258;-14
2022/07/04 05:01:56;;;;;;;3.28;1.13;;;;;;;;;;7312407;19;162549;-14
2022/07/04 05:04:27;;;;;;;2.45;1.33;;;;;;;;;;7315529;19;162790;-14
2022/07/04 05:06:58;;;;;;;1.48;1.00;;;;;;;;;;7316008;19;154438;-15
2022/07/04 05:09:32;;;;;;;3.53;1.17;;;;;;;;;;7316046;19;153984;-12
2022/07/04 05:12:03;;;;;;;1.27;1.17;;;;;;;;;;7315539;19;162133;-15
2022/07/04 05:14:35;;;;;;;1.30;1.13;;;;;;;;;;7313836;19;162882;-12
2022/07/04 05:17:07;;;;;;;1.48;0.90;;;;;;;;;;7315492;19;154673;-14
2022/07/04 05:19:38;;;;;;;2.13;1.27;;;;;;;;;;7314390;19;153986;-14
2022/07/04 05:22:10;;;;;;;2.13;1.15;;;;;;;;;;7312951;19;162235;-14
2022/07/04 05:24:44;;;;;;;1.27;1.13;;;;;;;;;;7313857;19;162771;-13
2022/07/04 05:27:15;;;;;;;1.70;1.20;;;;;;;;;;7315588;19;154570;-13
2022/07/04 05:29:46;;;;;;;4.28;1.42;;;;;;;;;;7315358;19;154272;-13
2022/07/04 05:32:19;;;;;;;;;;;;;;;;;;7315208;19;162596;-14
2022/07/04 05:34:50;;;;;;;5.25;1.40;;;;;;;;;;7314466;19;163423;-13
2022/07/04 05:37:21;;;;;;;6.13;1.35;;;;;;;;;;7315030;19;154855;-13
2022/07/04 05:39:54;;;;;;;3.75;1.58;;;;;;;;;;7314957;19;154117;-13
2022/07/04 05:42:26;;;;;;;3.72;1.17;;;;;;;;;;7312631;19;162405;-13
2022/07/04 05:45:00;;;;;;;7.72;1.40;;;;;;;;;;7314477;19;163254;-14
2022/07/04 05:47:32;;;;;;;6.10;1.60;;;;;;;;;;7314514;19;154561;-14
2022/07/04 05:50:03;;;;;;;6.95;1.85;;;;;;;;;;7313297;19;153983;-14
2022/07/04 05:52:34;;;;;;;13.93;2.42;;;;;;;;;;7312966;19;162416;-14
2022/07/04 05:55:09;;;;;;;15.20;2.67;;;;;;;;;;7313556;19;163239;-14
2022/07/04 05:57:40;;;;;;;13.48;2.60;;;;;;;;;;7310726;19;154608;-14
2022/07/04 06:00:15;;;;;;;12.82;2.55;;;;;;;;;;7313182;19;154047;-14
2022/07/04 06:02:46;;;;;;;24.10;2.80;;;;;;;;;;7312088;19;161924;-13
2022/07/04 06:05:17;;;;;;;14.30;2.80;;;;;;;;;;7312871;19;163014;-13
2022/07/04 06:07:49;;;;;;;12.82;2.90;;;;;;;;;;7314210;19;154469;-14
2022/07/04 06:10:23;;;;;;;19.63;3.38;;;;;;;;;;7312214;19;154038;-13
2022/07/04 06:12:55;;;;;;;10.63;2.40;;;;;;;;;;7313416;19;162634;-13
2022/07/04 06:15:26;;;;;;;16.92;2.78;;;;;;;;;;7313546;19;162930;-13
2022/07/04 06:17:57;;;;;;;11.60;2.28;;;;;;;;;;7313792;19;154951;-13
2022/07/04 06:20:28;;;;;;;15.63;2.42;;;;;;;;;;7311316;19;154045;-13
2022/07/04 06:23:00;;;;;;;10.00;2.15;;;;;;;;;;7311375;19;162248;-13
2022/07/04 06:25:33;;;;;;;8.90;2.65;;;;;;;;;;7313227;19;163211;-13
2022/07/04 06:28:05;;;;;;;13.77;2.00;;;;;;;;;;7313782;19;155258;-13
2022/07/04 06:30:36;;;;;;;11.23;2.55;;;;;;;;;;7313469;19;154571;-14
2022/07/04 06:33:08;;;;;;;7.85;2.50;;;;;;;;;;7312888;19;162164;-13
2022/07/04 06:35:45;;;;;;;9.70;1.98;;;;;;;;;;7311393;19;162786;-13
2022/07/04 06:38:19;;;;;;;4.32;1.75;;;;;;;;;;7311099;19;155113;-13
2022/07/04 06:40:57;;;;;;;5.57;2.05;;;;;;;;;;7313275;19;153939;-13
2022/07/04 06:43:29;;;;;;;6.43;1.77;;;;;;;;;;7310409;19;162305;-13
2022/07/04 06:46:00;;;;;;;6.15;1.75;;;;;;;;;;7312438;19;162830;-13
2022/07/04 06:48:31;;;;;;;6.70;1.75;;;;;;;;;;7312960;19;154527;-13
2022/07/04 06:51:03;;;;;;;6.35;2.17;;;;;;;;;;7313350;19;154340;-14
2022/07/04 06:53:34;;;;;;;10.70;1.60;;;;;;;;;;7311166;19;162191;-13
2022/07/04 06:56:08;;;;;;;9.68;1.75;;;;;;;;;;7312540;19;162737;-13
2022/07/04 06:58:39;;;;;;;5.97;2.00;;;;;;;;;;7313108;19;154506;-14
2022/07/04 07:01:10;;;;;;;6.45;1.58;;;;;;;;;;7313140;19;154532;-13
2022/07/04 07:03:42;;;;;;;4.22;1.33;;;;;;;;;;7310115;19;162433;-13
2022/07/04 07:06:13;;;;;;;5.57;1.38;;;;;;;;;;7312657;19;163296;-13
2022/07/04 07:08:44;;;;;;;4.35;1.77;;;;;;;;;;7312472;19;155445;-13
2022/07/04 07:11:19;;;;;;;11.35;2.35;;;;;;;;;;7312664;19;154021;-13
2022/07/04 07:13:53;;;;;;;7.03;1.58;;;;;;;;;;7312177;19;162312;-13
2022/07/04 07:16:25;;;;;;;8.30;2.35;;;;;;;;;;7312062;19;163221;-13
2022/07/04 07:18:56;;;;;;;8.03;1.67;;;;;;;;;;7311207;19;154521;-13
2022/07/04 07:21:27;;;;;;;6.40;1.13;;;;;;;;;;7311945;19;153879;-13
2022/07/04 07:24:00;;;;;;;3.75;1.20;;;;;;;;;;7309194;19;162835;-13
2022/07/04 07:26:33;;;;;;;3.28;1.40;;;;;;;;;;7310053;19;162890;-13
2022/07/04 07:29:05;;;;;;;4.28;1.17;;;;;;;;;;7311964;19;154818;-14
2022/07/04 07:31:36;;;;;;;6.60;1.60;;;;;;;;;;7311858;19;154008;-14
2022/07/04 07:34:08;;;;;;;9.10;1.45;;;;;;;;;;7311433;19;162637;-14
2022/07/04 07:36:39;;;;;;;3.38;1.52;;;;;;;;;;7311495;19;162801;-15
2022/07/04 07:39:10;;;;;;;4.20;1.48;;;;;;;;;;7311900;19;155004;-14
2022/07/04 07:41:44;;;;;;;6.82;1.58;;;;;;;;;;7311867;19;153911;-16
2022/07/04 07:44:16;;;;;;;4.07;1.20;;;;;;;;;;7308756;19;162684;-14
2022/07/04 07:46:47;;;;;;;3.28;1.00;;;;;;;;;;7310892;19;163218;-14
2022/07/04 07:49:18;;;;;;;7.10;1.48;;;;;;;;;;7309236;19;154371;-14
2022/07/04 07:51:49;;;;;;;7.65;1.52;;;;;;;;;;7309629;19;154701;-13
2022/07/04 07:54:21;;;;;;;7.68;1.63;;;;;;;;;;7310761;19;162278;-13
2022/07/04 07:57:05;;;;;;;7.63;1.42;;;;;;;;;;7310776;19;162867;-14
2022/07/04 07:59:37;;;;;;;5.47;1.45;;;;;;;;;;7311144;19;154667;-13
2022/07/04 08:02:08;;;;;;;6.00;1.52;;;;;;;;;;7311019;19;153898;-14
2022/07/04 08:04:37;;;;;;;4.70;1.50;;;;;;;;;;7307868;19;162294;-15
2022/07/04 08:07:11;;;;;;;9.73;1.60;;;;;;;;;;7310533;19;162798;-14
2022/07/04 08:09:51;;;;;;;;;;;;;;;;;;7310023;19;154525;-15
2022/07/04 08:12:24;;;;;;;3.67;1.48;;;;;;;;;;7311218;19;153851;-15
2022/07/04 08:14:56;;;;;;;3.75;1.23;;;;;;;;;;7308415;19;162339;-14
2022/07/04 08:17:28;;;;;;;;;;;;;;;;;;7310548;19;162988;-14
2022/07/04 08:19:59;;;;;;;3.80;1.38;;;;;;;;;;7308533;19;155187;-15
2022/07/04 08:22:31;;;;;;;1.75;1.13;;;;;;;;;;7310132;19;153995;-14
2022/07/04 08:25:02;;;;;;;10.45;1.50;;;;;;;;;;7309730;19;162284;-14
2022/07/04 08:27:36;;;;;;;5.25;1.45;;;;;;;;;;7309704;19;163243;-14
2022/07/04 08:30:08;;;;;;;1.70;1.13;;;;;;;;;;7309799;19;154541;-14
2022/07/04 08:32:39;;;;;;;4.40;1.50;;;;;;;;;;7308513;19;153885;-14
2022/07/04 08:35:12;;;;;;;4.20;1.23;;;;;;;;;;7309807;19;162308;-14
2022/07/04 08:37:43;;;;;;;3.65;1.50;;;;;;;;;;7309149;19;162869;-14
2022/07/04 08:40:15;;;;;;;2.33;1.00;;;;;;;;;;7308028;19;155078;-14
2022/07/04 08:42:50;;;;;;;3.13;1.20;;;;;;;;;;7308374;19;154659;-14
2022/07/04 08:45:28;;;;;;;2.72;1.65;;;;;;;;;;7309333;19;162815;-12
2022/07/04 08:48:03;;;;;;;1.35;1.00;;;;;;;;;;7309048;19;162789;-15
2022/07/04 08:50:38;;;;;;;4.15;1.15;;;;;;;;;;7309552;19;154507;-15
2022/07/04 08:53:12;;;;;;;5.43;1.30;;;;;;;;;;7309711;19;155182;-15
2022/07/04 08:58:33;;;;;;;3.63;1.65;;;;;;;;;;7307289;19;163032;-15
2022/07/04 09:01:06;;;;;;;4.45;0.93;;;;;;;;;;7312785;19;154497;-15
2022/07/04 09:03:38;;;;;;;3.75;1.30;;;;;;;;;;7315113;19;153928;-15
2022/07/04 09:06:09;;;;;;;5.20;1.40;;;;;;;;;;7315545;19;162303;-14
2022/07/04 09:08:41;;;;;;;6.07;0.98;;;;;;;;;;7315243;19;163368;-14
2022/07/04 09:11:13;;;;;;;4.13;1.17;;;;;;;;;;7315889;19;154697;-15
2022/07/04 09:13:46;;;;;;;2.72;1.00;;;;;;;;;;7315822;19;153954;-14
2022/07/04 09:16:18;;;;;;;5.40;1.23;;;;;;;;;;7312984;19;162374;-15
2022/07/04 09:18:49;;;;;;;4.50;1.08;;;;;;;;;;7311059;19;162945;-15
2022/07/04 09:21:21;;;;;;;3.47;1.17;;;;;;;;;;7314073;19;154537;-14
2022/07/04 09:23:52;;;;;;;2.80;1.38;;;;;;;;;;7314650;19;154317;-14
2022/07/04 09:26:25;;;;;;;3.45;1.10;;;;;;;;;;7313977;19;162181;-14
2022/07/04 09:29:00;;;;;;;4.53;1.30;;;;;;;;;;7314577;19;162918;-14
2022/07/04 09:31:33;;;;;;;1.73;0.95;;;;;;;;;;7315053;19;154616;-15
2022/07/04 09:34:06;;;;;;;2.15;0.85;;;;;;;;;;7314917;19;153865;-14
2022/07/04 09:36:42;;;;;;;1.42;0.90;;;;;;;;;;7314394;19;162330;-15
2022/07/04 09:39:17;;;;;;;1.63;0.70;;;;;;;;;;7315149;19;163207;-15
2022/07/04 09:41:56;;;;;;;1.60;0.90;;;;;;;;;;7314626;19;154452;-15
2022/07/04 09:44:32;;;;;;;1.30;0.85;;;;;;;;;;7313248;19;153832;-15
2022/07/04 09:47:22;;;;;;;5.20;1.10;;;;;;;;;;7313567;19;162304;-15
2022/07/04 09:50:03;;;;;;;2.88;0.80;;;;;;;;;;7312709;19;163045;-15
2022/07/04 09:52:45;;;;;;;2.28;1.10;;;;;;;;;;7314813;19;154553;-15
2022/07/04 09:55:23;;;;;;;3.13;1.00;;;;;;;;;;7314543;19;153955;-15
2022/07/04 09:57:57;;;;;;;1.30;0.85;;;;;;;;;;7314070;19;162542;-14
2022/07/04 10:00:32;;;;;;;2.22;1.13;;;;;;;;;;7313583;19;162806;-14
2022/07/04 10:03:19;;;;;;;1.83;1.15;;;;;;;;;;7312366;19;154639;-14
2022/07/04 10:06:05;;;;;;;3.00;0.82;;;;;;;;;;7310750;19;154315;-14
2022/07/04 10:08:37;;;;;;;1.05;0.80;;;;;;;;;;7314022;19;163003;-14
2022/07/04 10:11:09;;;;;;;1.27;1.00;;;;;;;;;;7312576;19;162823;-14
2022/07/04 10:13:43;;;;;;;3.15;1.00;;;;;;;;;;7312268;19;154547;-14
2022/07/04 10:16:18;;;;;;;1.20;1.05;;;;;;;;;;7313812;19;154500;-14
2022/07/04 10:18:50;;;;;;;1.30;0.68;;;;;;;;;;7313717;19;162314;-14
2022/07/04 10:21:21;;;;;;;2.72;1.05;;;;;;;;;;7313470;19;163403;-14
2022/07/04 10:23:54;;;;;;;2.20;1.05;;;;;;;;;;7313185;19;154434;-14
2022/07/04 10:26:26;;;;;;;3.10;1.02;;;;;;;;;;7313787;19;153931;-15
2022/07/04 10:28:58;;;;;;;1.77;1.05;;;;;;;;;;7313564;19;162345;-13
2022/07/04 10:31:33;;;;;;;4.75;0.80;;;;;;;;;;7313042;19;162818;-12
2022/07/04 10:34:05;;;;;;;2.60;0.80;;;;;;;;;;7313682;19;154573;-20
2022/07/04 10:36:36;;;;;;;1.65;1.30;;;;;;;;;;7313190;19;154386;-15
2022/07/04 10:39:08;;;;;;;4.25;1.05;;;;;;;;;;7312616;19;162695;-15
2022/07/04 10:42:01;;;;;;;4.20;0.82;;;;;;;;;;7313308;19;163338;-15
2022/07/04 10:44:37;;;;;;;0.85;0.85;;;;;;;;;;7312596;19;155054;-15
2022/07/04 10:47:27;;;;;;;5.40;1.20;;;;;;;;;;7311326;19;154376;-15
2022/07/04 10:49:59;;;;;;;3.67;0.90;;;;;;;;;;7311701;19;162346;-13
2022/07/04 10:52:30;;;;;;;3.42;0.88;;;;;;;;;;7312806;19;162892;-13
2022/07/04 10:55:13;;;;;;;3.60;1.10;;;;;;;;;;7312215;19;154573;-13
2022/07/04 10:57:45;;;;;;;1.02;0.70;;;;;;;;;;7312537;19;154100;-13
2022/07/04 11:00:17;;;;;;;3.63;1.10;;;;;;;;;;7312083;19;162398;-13
2022/07/04 11:02:51;;;;;;;3.87;0.87;;;;;;;;;;7311731;19;163216;-13
2022/07/04 11:05:34;;;;;;;3.80;0.88;;;;;;;;;;7311270;19;154092;-13
2022/07/04 11:08:06;;;;;;;2.75;0.95;;;;;;;;;;7310918;19;154008;-13
2022/07/04 11:10:40;;;;;;;2.50;1.10;;;;;;;;;;7311004;19;162427;-13
2022/07/04 11:13:22;;;;;;;1.40;0.80;;;;;;;;;;7311054;19;133295;-13
2022/07/04 11:16:04;;;;;;;5.32;1.02;;;;;;;;;;7312088;19;154867;-13
2022/07/04 11:18:45;;;;;;;2.20;0.85;;;;;;;;;;7311951;19;153514;-13
2022/07/04 11:21:26;;;;;;;0.95;0.90;;;;;;;;;;7308682;19;163264;-13
2022/07/04 11:23:58;;;;;;;3.95;0.73;;;;;;;;;;7310312;19;163224;-13
2022/07/04 11:26:29;;;;;;;1.83;0.90;;;;;;;;;;7308107;19;154679;-15
2022/07/04 11:29:00;;;;;;;2.22;0.85;;;;;;;;;;7311665;19;153992;-13
2022/07/04 11:31:39;;;;;;;1.80;0.60;;;;;;;;;;7311428;19;162253;-13
2022/07/04 11:34:14;;;;;;;1.88;1.13;;;;;;;;;;7311386;19;162833;-13
2022/07/04 11:36:46;;;;;;;3.17;0.90;;;;;;;;;;7310075;19;154613;-13
2022/07/04 11:39:20;;;;;;;2.50;0.90;;;;;;;;;;7309850;19;154165;-13
2022/07/04 11:47:24;;;;;;;0.93;0.80;;;;;;;;;;7311398;19;154471;-13
2022/07/04 11:50:00;;;;;;;2.53;1.05;;;;;;;;;;7311422;19;154397;-15
2022/07/04 11:52:34;;;;;;;2.85;1.15;;;;;;;;;;7310890;19;162756;-13
2022/07/04 11:55:07;;;;;;;1.85;0.73;;;;;;;;;;7310474;19;162996;-13
2022/07/04 11:57:40;;;;;;;3.03;0.85;;;;;;;;;;7309840;19;154503;-13
2022/07/04 12:00:16;;;;;;;1.65;0.82;;;;;;;;;;7310693;19;154091;-13
2022/07/04 12:02:49;;;;;;;2.88;1.00;;;;;;;;;;7310576;19;162804;-13
2022/07/04 12:05:22;;;;;;;;;;;;;;;;;;7310432;19;162367;-13
2022/07/04 12:07:53;;;;;;;1.25;0.90;;;;;;;;;;7310741;19;154516;-13
2022/07/04 12:10:44;;;;;;;1.15;0.73;;;;;;;;;;7310273;19;154077;-13
2022/07/04 12:13:19;;;;;;;1.25;0.80;;;;;;;;;;7308467;19;162411;-13
2022/07/04 12:15:52;;;;;;;1.52;0.98;;;;;;;;;;7309875;19;162787;-13
2022/07/04 12:18:25;;;;;;;3.30;1.05;;;;;;;;;;7308688;19;154549;-13
2022/07/04 12:21:15;;;;;;;2.85;0.93;;;;;;;;;;7307552;19;153937;-13
2022/07/04 12:23:53;;;;;;;2.00;0.88;;;;;;;;;;7309653;19;162840;-13
2022/07/04 12:26:49;;;;;;;4.57;0.85;;;;;;;;;;7308156;19;163570;-13
2022/07/04 12:29:24;;;;;;;1.63;0.80;;;;;;;;;;7309774;19;154504;-13
2022/07/04 12:32:01;;;;;;;2.20;1.00;;;;;;;;;;7309396;19;154396;-13
2022/07/04 12:34:33;;;;;;;0.87;0.87;;;;;;;;;;7309624;19;162309;-13
2022/07/04 12:37:11;;;;;;;1.20;0.80;;;;;;;;;;7315872;19;163197;-13
2022/07/04 12:39:44;;;;;;;2.20;0.70;;;;;;;;;;7314995;19;155102;-13
2022/07/04 12:42:18;;;;;;;1.65;1.00;;;;;;;;;;7316834;19;154361;-13
2022/07/04 12:44:51;;;;;;;2.63;0.80;;;;;;;;;;7316130;19;162622;-13
2022/07/04 12:47:23;;;;;;;2.75;1.10;;;;;;;;;;7314224;19;163197;-13
2022/07/04 12:50:03;;;;;;;0.60;0.60;;;;;;;;;;7316228;19;154732;-15
2022/07/04 12:52:37;;;;;;;1.85;0.70;;;;;;;;;;7314565;19;154388;-15
2022/07/04 12:55:11;;;;;;;1.98;1.25;;;;;;;;;;7315876;19;162284;-15
2022/07/04 12:57:42;;;;;;;1.20;0.70;;;;;;;;;;7315505;19;162781;-15
2022/07/04 13:00:14;;;;;;;0.80;0.80;;;;;;;;;;7314377;19;154495;-15
2022/07/04 13:03:06;;;;;;;2.40;0.60;;;;;;;;;;7315551;19;154011;-15
2022/07/04 13:05:38;;;;;;;1.33;0.80;;;;;;;;;;7315571;19;162283;-14
2022/07/04 13:08:12;;;;;;;0.77;0.77;;;;;;;;;;7315451;19;162864;-15
2022/07/04 13:10:43;;;;;;;0.73;0.57;;;;;;;;;;7315915;19;154869;-14
2022/07/04 13:13:14;;;;;;;0.75;0.68;;;;;;;;;;7315140;19;154011;-14
2022/07/04 13:15:45;;;;;;;0.93;0.80;;;;;;;;;;7313814;19;162582;-14
2022/07/04 13:18:17;;;;;;;0.80;0.80;;;;;;;;;;7314621;19;163415;-14
2022/07/04 13:20:48;;;;;;;1.05;0.73;;;;;;;;;;7313283;19;154403;-18
2022/07/04 13:23:22;;;;;;;1.13;0.60;;;;;;;;;;7313699;19;155039;-14
2022/07/04 13:25:53;;;;;;;1.77;0.77;;;;;;;;;;7314889;19;162211;-14
2022/07/04 13:28:24;;;;;;;2.00;0.85;;;;;;;;;;7313127;19;162396;-14
2022/07/04 13:30:55;;;;;;;1.52;0.90;;;;;;;;;;7315226;19;154594;-14
2022/07/04 13:33:27;;;;;;;3.65;0.80;;;;;;;;;;7313057;19;154116;-14
2022/07/04 13:35:58;;;;;;;2.17;0.75;;;;;;;;;;7314342;19;162861;-14
2022/07/04 13:38:32;;;;;;;3.13;0.95;;;;;;;;;;7314236;19;162849;-15
2022/07/04 13:41:04;;;;;;;6.10;2.47;;;;;;;;;;7314604;19;154507;-14
2022/07/04 13:43:35;;;;;;;16.45;6.30;;;;;;;;;;7314760;19;153958;-14
2022/07/04 13:46:07;;;;;;;29.60;10.93;;;;;;;;;;7313061;19;162357;-14
2022/07/04 13:48:38;;;;;;;42.90;15.32;;;;;;;;;;7313161;19;163186;-14
2022/07/04 13:51:10;;;;;;;69.57;27.50;;;;;;;;;;7314339;19;155037;-14
2022/07/04 13:53:43;;;;;;;104.88;39.60;;;;;;;;;;7312679;19;154243;-14
2022/07/04 13:56:17;;;;;;;131.18;53.10;;;;;;;;;;7313467;19;162216;-14
2022/07/04 13:58:50;;;;;;;165.15;64.90;;;;;;;;;;7310851;19;163246;-14
2022/07/04 14:01:21;;;;;;;168.37;68.87;;;;;;;;;;7314229;19;154467;-14
2022/07/04 14:03:53;;;;;;;184.90;75.63;;;;;;;;;;7313834;19;154428;-14
2022/07/04 14:06:24;;;;;;;199.35;80.60;;;;;;;;;;7313226;19;162183;-19
2022/07/04 14:08:58;;;;;;;192.35;79.85;;;;;;;;;;7311666;19;162854;-14
2022/07/04 14:11:29;;;;;;;190.70;80.85;;;;;;;;;;7313411;19;154578;-14
2022/07/04 14:14:01;;;;;;;200.60;79.03;;;;;;;;;;7313460;19;154118;-15
2022/07/04 14:16:32;;;;;;;196.48;80.28;;;;;;;;;;7311462;19;162713;-14
2022/07/04 14:19:03;;;;;;;187.07;79.95;;;;;;;;;;7310892;19;163175;-14
2022/07/04 14:21:37;;;;;;;188.23;76.30;;;;;;;;;;7313620;19;154485;-14
2022/07/04 14:24:11;;;;;;;192.18;77.40;;;;;;;;;;7311321;19;154461;-14
2022/07/04 14:26:45;;;;;;;183.98;73.30;;;;;;;;;;7312133;19;162173;-15
2022/07/04 14:29:16;;;;;;;179.25;69.80;;;;;;;;;;7312526;19;163388;-14
2022/07/04 14:31:48;;;;;;;166.13;69.68;;;;;;;;;;7313116;19;154466;-14
2022/07/04 14:34:19;;;;;;;171.85;67.53;;;;;;;;;;7312990;19;154551;-14
2022/07/04 14:36:50;;;;;;;156.65;64.03;;;;;;;;;;7310945;19;162342;-14
2022/07/04 14:39:24;;;;;;;165.35;63.90;;;;;;;;;;7312600;19;162857;-14
2022/07/04 14:41:56;;;;;;;147.32;62.22;;;;;;;;;;7311472;19;154596;-14
2022/07/04 14:44:28;;;;;;;142.27;58.75;;;;;;;;;;7312842;19;154062;-14
2022/07/04 14:46:59;;;;;;;143.32;57.85;;;;;;;;;;7312161;19;162413;-15
2022/07/04 14:49:30;;;;;;;144.93;55.95;;;;;;;;;;7312364;19;162811;-15
2022/07/04 14:52:02;;;;;;;129.70;52.22;;;;;;;;;;7311132;19;154716;-15
2022/07/04 14:54:35;;;;;;;123.55;49.60;;;;;;;;;;7312617;19;154507;-15
2022/07/04 14:57:07;;;;;;;119.68;48.70;;;;;;;;;;7310709;19;162697;-15
2022/07/04 14:59:38;;;;;;;117.72;46.67;;;;;;;;;;7309982;19;163273;-15
2022/07/04 15:02:10;;;;;;;96.53;42.88;;;;;;;;;;7310604;19;155126;-15
2022/07/04 15:04:41;;;;;;;87.15;36.63;;;;;;;;;;7312052;19;154520;-15
2022/07/04 15:07:12;;;;;;;107.10;40.53;;;;;;;;;;7310080;19;162972;-15
2022/07/04 15:09:46;;;;;;;94.60;36.90;;;;;;;;;;7311787;19;162740;-14
2022/07/04 15:12:17;;;;;;;81.00;35.05;;;;;;;;;;7311613;19;154534;-15
2022/07/04 15:14:48;;;;;;;95.25;36.70;;;;;;;;;;7312296;19;154019;-15
2022/07/04 15:17:20;;;;;;;83.03;34.95;;;;;;;;;;7311993;19;162720;-15